.
WxDataArchive / Data Records for 2009-05-31
2009-05-30 May 2009 2009-06-01

Data Records for Sunday, 31 May 2009

Time	Temp	Chill	HIndex	Humid	Dewpt	 Wind 	HiWind	WindDir	Rain 	Barom 
-----	----	-----	------	-----	-----	------	------	-------	-----	----- 
00:00	58.0	58.0	58.0	70	48.3	0	0	---	0.00	29.759 
00:05	57.8	57.8	57.8	71	48.5	0	0	---	0.00	29.759 
00:10	57.6	57.6	57.6	72	48.6	0	0	---	0.00	29.759 
00:15	57.3	57.3	57.3	73	48.7	0	0	---	0.00	29.762 
00:20	57.2	57.2	57.2	73	48.6	0	1	270	0.00	29.762 
00:25	57.3	57.3	57.3	72	48.3	0	0	---	0.00	29.762 
00:30	57.3	57.3	57.3	72	48.3	0	0	---	0.00	29.764 
00:35	57.2	57.2	57.2	72	48.3	0	0	---	0.00	29.764 
00:40	57.0	57.0	57.0	73	48.4	0	0	---	0.00	29.764 
00:45	56.9	56.9	56.9	73	48.3	0	0	---	0.00	29.766 
00:50	56.7	56.7	56.7	73	48.1	0	0	---	0.00	29.766 
00:55	56.6	56.6	56.6	74	48.4	0	0	---	0.00	29.766 
01:00	56.5	56.5	56.5	75	48.7	0	0	---	0.00	29.764 
01:05	56.3	56.3	56.3	76	48.8	0	0	---	0.00	29.764 
01:10	56.0	56.0	56.0	76	48.5	0	0	---	0.00	29.764 
01:15	55.9	55.9	55.9	77	48.8	0	0	---	0.00	29.772 
01:20	55.9	55.9	55.9	77	48.8	0	0	---	0.00	29.772 
01:25	55.9	55.9	55.9	77	48.8	0	0	---	0.00	29.772 
01:30	55.9	55.9	55.9	77	48.8	0	0	---	0.00	29.777 
01:35	56.0	56.0	56.0	77	48.9	0	0	---	0.00	29.777 
01:40	56.0	56.0	56.0	77	48.9	0	0	---	0.00	29.777 
01:45	56.3	56.3	56.3	74	48.1	0	0	---	0.00	29.783 
01:50	56.7	56.7	56.7	73	48.1	0	1	270	0.00	29.783 
01:55	57.2	57.2	57.2	71	47.9	0	0	---	0.00	29.783 
02:00	57.8	57.8	57.8	69	47.7	0	2	270	0.00	29.785 
02:05	58.4	58.4	58.4	66	47.1	0	1	270	0.00	29.785 
02:10	58.7	58.7	58.7	66	47.4	0	1	270	0.00	29.785 
02:15	58.9	58.9	58.9	65	47.2	0	1	270	0.00	29.787 
02:20	58.9	58.9	58.9	65	47.2	0	0	---	0.00	29.787 
02:25	58.7	58.7	58.7	66	47.4	0	1	270	0.00	29.787 
02:30	58.6	58.6	58.6	66	47.3	0	0	---	0.00	29.788 
02:35	58.6	58.6	58.6	66	47.3	0	0	---	0.00	29.788 
02:40	58.3	58.3	58.3	66	47.0	0	0	---	0.00	29.788 
02:45	58.1	58.1	58.1	66	46.8	0	0	---	0.00	29.791 
02:50	58.0	58.0	58.0	66	46.7	0	0	---	0.00	29.791 
02:55	57.8	57.8	57.8	67	46.9	0	0	---	0.00	29.791 
03:00	57.6	57.6	57.6	68	47.1	0	0	---	0.00	29.792 
03:05	57.5	57.5	57.5	67	46.6	0	1	270	0.00	29.792 
03:10	57.5	57.5	57.5	68	47.0	0	0	---	0.00	29.792 
03:15	57.3	57.3	57.3	68	46.8	0	0	---	0.00	29.792 
03:20	57.2	57.2	57.2	69	47.1	0	0	---	0.00	29.792 
03:25	56.9	56.9	56.9	69	46.8	0	0	---	0.00	29.792 
03:30	56.7	56.7	56.7	69	46.6	0	0	---	0.00	29.799 
03:35	56.7	56.7	56.7	69	46.6	0	0	---	0.00	29.799 
03:40	56.7	56.7	56.7	69	46.6	0	0	---	0.00	29.799 
03:45	56.7	56.7	56.7	69	46.6	0	0	---	0.00	29.804 
03:50	56.6	56.6	56.6	69	46.5	0	0	---	0.00	29.804 
03:55	56.6	56.6	56.6	69	46.5	0	0	---	0.00	29.804 
04:00	56.7	56.7	56.7	69	46.6	0	1	270	0.00	29.807 
04:05	56.9	56.9	56.9	68	46.4	0	0	---	0.00	29.807 
04:10	56.9	56.9	56.9	68	46.4	0	1	270	0.00	29.807 
04:15	56.9	56.9	56.9	68	46.4	0	1	270	0.00	29.810 
04:20	56.7	56.7	56.7	68	46.3	0	0	---	0.00	29.810 
04:25	56.7	56.7	56.7	68	46.3	0	1	270	0.00	29.810 
04:30	56.9	56.9	56.9	68	46.4	0	1	270	0.00	29.819 
04:35	56.7	56.7	56.7	68	46.3	0	1	270	0.00	29.819 
04:40	56.6	56.6	56.6	69	46.5	0	1	270	0.00	29.819 
04:45	56.5	56.5	56.5	69	46.5	0	0	---	0.00	29.823 
04:50	56.2	56.2	56.2	70	46.5	0	0	---	0.00	29.823 
04:55	55.9	55.9	55.9	70	46.3	0	0	---	0.00	29.823 
05:00	55.7	55.7	55.7	71	46.4	0	1	270	0.00	29.832 
05:05	55.7	55.7	55.7	71	46.4	0	2	270	0.00	29.832 
05:10	55.9	55.9	55.9	71	46.6	0	1	270	0.00	29.832 
05:15	55.9	55.9	55.9	72	47.0	0	2	135	0.00	29.839 
05:20	55.9	55.9	55.9	72	47.0	0	5	315	0.00	29.839 
05:25	55.7	55.7	55.7	73	47.2	0	1	315	0.00	29.839 
05:30	55.4	55.4	55.4	74	47.3	0	4	45	0.00	29.852 
05:35	55.3	55.3	55.3	74	47.2	0	2	45	0.00	29.852 
05:40	55.1	55.1	55.1	75	47.3	0	1	45	0.00	29.852 
05:45	54.8	54.8	54.8	76	47.4	0	2	90	0.00	29.867 
05:50	54.7	54.7	54.7	77	47.6	1	3	112	0.00	29.867 
05:55	54.4	54.4	54.4	77	47.3	0	2	180	0.00	29.867 
06:00	54.2	54.2	54.2	78	47.5	0	2	180	0.00	29.883 
06:05	54.1	54.1	54.1	78	47.4	0	2	180	0.00	29.883 
06:10	53.9	53.9	53.9	79	47.5	0	3	135	0.00	29.883 
06:15	53.8	53.8	53.8	80	47.8	1	5	90	0.00	29.891 
06:20	53.8	53.8	53.8	80	47.8	0	2	90	0.00	29.891 
06:25	53.6	53.6	53.6	80	47.6	1	3	135	0.00	29.891 
06:30	53.3	53.3	53.3	78	46.6	1	3	112	0.00	29.904 
06:35	52.9	52.9	52.9	72	44.1	2	9	112	0.00	29.904 
06:40	52.8	52.8	52.8	70	43.3	1	4	112	0.00	29.904 
06:45	52.5	52.5	52.5	70	43.0	1	5	135	0.00	29.915 
06:50	52.2	52.2	52.2	69	42.3	2	7	90	0.00	29.915 
06:55	51.9	51.9	51.9	68	41.7	2	5	112	0.00	29.915 
07:00	51.7	51.7	51.7	66	40.7	2	6	90	0.00	29.924 
07:05	51.6	51.6	51.6	67	41.0	1	4	112	0.00	29.924 
07:10	51.4	51.4	51.4	67	40.8	2	11	90	0.00	29.924 
07:15	51.3	51.3	51.3	67	40.7	1	4	90	0.00	29.937 
07:20	51.6	51.6	51.6	66	40.6	1	4	90	0.00	29.937 
07:25	51.9	51.9	51.9	66	40.9	2	6	45	0.00	29.937 
07:30	52.2	52.2	52.2	64	40.4	2	8	90	0.00	29.947 
07:35	52.2	52.2	52.2	64	40.4	3	6	112	0.00	29.947 
07:40	52.3	52.3	52.3	64	40.5	2	10	90	0.00	29.947 
07:45	52.6	52.6	52.6	64	40.8	2	4	90	0.00	29.955 
07:50	52.8	52.8	52.8	64	41.0	2	5	112	0.00	29.955 
07:55	52.9	52.9	52.9	63	40.7	3	5	90	0.00	29.955 
08:00	53.1	53.1	53.1	64	41.2	1	4	112	0.00	29.962 
08:05	53.3	53.3	53.3	63	41.0	2	5	112	0.00	29.962 
08:10	53.5	53.5	53.5	64	41.6	2	5	90	0.00	29.962 
08:15	53.6	53.6	53.6	64	41.7	2	5	90	0.00	29.970 
08:20	53.8	53.8	53.8	64	41.9	2	5	90	0.00	29.970 
08:25	54.4	54.4	54.4	64	42.5	1	3	90	0.00	29.970 
08:30	54.8	54.8	54.8	63	42.4	1	4	90	0.00	29.974 
08:35	55.1	55.1	55.1	62	42.3	2	5	112	0.00	29.974 
08:40	55.4	55.4	55.4	61	42.2	1	3	90	0.00	29.974 
08:45	55.7	55.7	55.7	60	42.0	2	4	112	0.00	29.985 
08:50	55.9	55.9	55.9	60	42.2	1	4	112	0.00	29.985 
08:55	55.9	55.9	55.9	58	41.3	2	4	112	0.00	29.985 
09:00	55.9	55.9	55.9	58	41.3	1	5	112	0.00	29.986 
09:05	56.3	56.3	56.3	58	41.7	1	5	112	0.00	29.986 
09:10	56.5	56.5	56.5	57	41.5	1	4	90	0.00	29.986 
09:15	56.6	56.6	56.6	57	41.5	2	5	112	0.00	29.992 
09:20	56.7	56.7	56.7	58	42.1	1	4	90	0.00	29.992 
09:25	57.2	57.2	57.2	57	42.1	1	5	112	0.00	29.992 
09:30	57.3	57.3	57.3	54	40.8	1	5	90	0.00	30.003 
09:35	57.6	57.6	57.6	53	40.6	1	5	90	0.00	30.003 
09:40	58.0	58.0	58.0	53	41.0	1	5	112	0.00	30.003 
09:45	58.3	58.3	58.3	53	41.2	1	4	112	0.00	30.009 
09:50	58.4	58.4	58.4	52	40.8	1	3	112	0.00	30.009 
09:55	59.0	59.0	59.0	52	41.4	1	2	90	0.00	30.009 
10:00	59.6	59.6	59.6	51	41.4	0	2	90	0.00	30.009 
10:05	60.4	60.4	60.4	50	41.7	1	4	68	0.00	30.009 
10:10	60.7	60.7	60.7	51	42.5	1	3	90	0.00	30.009 
10:15	60.9	60.9	60.9	50	42.1	0	2	90	0.00	30.014 
10:20	60.9	60.9	60.9	44	38.8	1	3	90	0.00	30.014 
10:25	60.5	60.5	60.5	45	39.1	2	5	90	0.00	30.014 
10:30	60.5	60.5	60.5	45	39.1	1	3	112	0.00	30.007 
10:35	61.3	61.3	61.3	44	39.2	1	4	112	0.00	30.007 
10:40	61.3	61.3	61.3	44	39.2	1	2	112	0.00	30.007 
10:45	61.8	61.8	61.8	47	41.4	0	3	112	0.00	30.006 
10:50	62.0	62.0	62.0	41	38.0	1	3	112	0.00	30.006 
10:55	62.3	62.3	62.3	45	40.7	0	2	22	0.00	30.006 
11:00	62.3	62.3	62.3	42	38.9	0	2	45	0.00	30.009 
11:05	62.4	62.4	62.4	40	37.8	1	3	112	0.00	30.009 
11:10	63.1	63.1	63.1	43	40.2	1	5	90	0.00	30.009 
11:15	63.1	63.1	63.1	39	37.7	1	4	90	0.00	30.009 
11:20	63.1	63.1	63.1	42	39.6	1	3	90	0.00	30.009 
11:25	63.4	63.4	63.4	43	40.5	0	2	90	0.00	30.009 
11:30	64.0	64.0	64.0	44	41.6	1	3	90	0.00	30.008 
11:35	64.5	64.5	64.5	43	41.5	0	2	90	0.00	30.008 
11:40	64.7	64.7	64.7	39	39.2	1	3	90	0.00	30.008 
11:45	64.7	64.7	64.7	38	38.5	2	4	90	0.00	30.011 
11:50	64.2	64.2	64.2	37	37.4	1	3	90	0.00	30.011 
11:55	64.3	64.3	64.3	44	41.9	1	3	135	0.00	30.011 
12:00	64.5	64.5	64.5	41	40.3	1	4	135	0.00	30.015 
12:05	64.7	64.7	64.7	41	40.5	1	3	112	0.00	30.015 
12:10	64.3	64.3	64.3	36	36.8	0	2	112	0.00	30.015 
12:15	64.3	64.3	64.3	36	36.8	0	2	112	0.00	30.022 
12:20	64.3	64.3	64.3	37	37.5	0	1	112	0.00	30.022 
12:25	64.8	64.8	64.8	40	39.9	0	2	112	0.00	30.022 
12:30	65.3	65.3	65.3	39	39.7	0	2	112	0.00	30.019 
12:35	65.8	65.8	65.8	36	38.1	0	2	112	0.00	30.019 
12:40	66.3	66.3	66.3	35	37.8	0	2	112	0.00	30.019 
12:45	66.4	66.4	66.4	33	36.4	2	5	112	0.00	30.017 
12:50	66.0	66.0	66.0	35	37.6	0	2	112	0.00	30.017 
12:55	66.1	66.1	66.1	36	38.4	0	3	112	0.00	30.017 
13:00	66.3	66.3	66.3	33	36.3	2	5	90	0.00	30.018 
13:05	66.1	66.1	66.1	33	36.2	1	3	112	0.00	30.018 
13:10	66.6	66.6	66.6	40	41.5	0	1	45	0.00	30.018 
13:15	66.9	66.9	66.9	38	40.5	1	3	45	0.00	30.016 
13:20	67.1	67.1	67.1	36	39.2	1	3	270	0.00	30.016 
13:25	67.1	67.1	67.1	32	36.3	0	1	270	0.00	30.016 
13:30	67.6	67.6	67.6	39	41.8	0	2	270	0.00	30.017 
13:35	67.6	67.6	67.6	31	35.9	1	4	90	0.00	30.017 
13:40	67.6	67.6	67.6	41	43.1	1	4	90	0.00	30.017 
13:45	67.4	67.4	67.4	32	36.5	0	1	90	0.00	30.015 
13:50	67.8	67.8	67.8	31	36.1	1	3	90	0.00	30.015 
13:55	68.1	68.1	68.1	31	36.3	1	3	90	0.00	30.015 
14:00	68.4	68.4	68.4	33	38.2	1	4	90	0.00	30.014 
14:05	68.1	68.1	68.1	34	38.7	1	3	292	0.00	30.014 
14:10	67.9	67.9	67.9	33	37.7	0	2	292	0.00	30.014 
14:15	68.4	68.4	68.4	38	41.8	1	3	292	0.00	30.013 
14:20	68.9	68.9	68.9	36	40.8	1	3	248	0.00	30.013 
14:25	68.9	68.9	68.9	35	40.1	1	2	248	0.00	30.013 
14:30	68.9	68.9	68.9	33	38.6	0	1	248	0.00	30.009 
14:35	68.9	68.9	68.9	33	38.6	0	2	270	0.00	30.009 
14:40	69.3	69.3	69.3	32	38.2	1	3	270	0.00	30.009 
14:45	69.1	69.1	69.1	34	39.5	1	4	292	0.00	30.007 
14:50	69.3	69.3	69.3	36	41.2	1	3	248	0.00	30.007 
14:55	69.6	69.6	69.6	33	39.2	1	5	90	0.00	30.007 
15:00	69.6	69.6	69.6	34	40.0	1	4	68	0.00	30.004 
15:05	69.4	69.4	69.4	35	40.6	1	3	270	0.00	30.004 
15:10	69.8	69.8	69.8	33	39.4	1	2	248	0.00	30.004 
15:15	69.9	69.9	69.9	39	43.8	0	1	292	0.00	30.004 
15:20	70.3	70.3	70.3	37	42.8	0	1	292	0.00	30.004 
15:25	70.4	70.4	70.4	29	36.6	1	3	315	0.00	30.004 
15:30	70.3	70.3	70.3	35	41.3	1	3	292	0.00	30.004 
15:35	70.9	70.9	70.9	33	40.3	0	2	292	0.00	30.004 
15:40	71.5	71.5	71.5	35	42.4	0	2	292	0.00	30.004 
15:45	71.6	71.6	71.6	33	41.0	0	2	292	0.00	29.999 
15:50	71.5	71.5	71.5	31	39.3	1	3	292	0.00	29.999 
15:55	71.3	71.3	71.3	33	40.7	0	2	292	0.00	29.999 
16:00	70.9	70.9	70.9	32	39.6	1	2	338	0.00	29.999 
16:05	70.8	70.8	70.8	31	38.7	1	3	338	0.00	29.999 
16:10	70.9	70.9	70.9	30	37.9	0	2	338	0.00	29.999 
16:15	70.9	70.9	70.9	30	37.9	1	2	338	0.00	30.002 
16:20	70.8	70.8	70.8	33	40.3	1	4	292	0.00	30.002 
16:25	70.9	70.9	70.9	34	41.1	0	2	292	0.00	30.002 
16:30	71.1	71.1	71.1	33	40.5	0	2	292	0.00	30.001 
16:35	71.5	71.5	71.5	33	40.9	0	3	315	0.00	30.001 
16:40	71.3	71.3	71.3	31	39.1	1	5	338	0.00	30.001 
16:45	71.6	71.6	71.6	31	39.4	0	2	135	0.00	29.999 
16:50	72.0	72.0	72.0	30	38.9	1	3	248	0.00	29.999 
16:55	72.0	72.0	72.0	32	40.5	0	2	22	0.00	29.999 
17:00	72.0	72.0	72.0	29	38.0	0	2	0	0.00	29.998 
17:05	72.1	72.1	72.1	31	39.8	1	2	338	0.00	29.998 
17:10	72.3	72.3	72.3	32	40.8	0	2	0	0.00	29.998 
17:15	72.1	72.1	72.1	29	38.1	0	2	0	0.00	29.997 
17:20	72.3	72.3	72.3	29	38.3	0	2	0	0.00	29.997 
17:25	72.0	72.0	72.0	28	37.1	0	3	0	0.00	29.997 
17:30	72.1	72.1	72.1	30	38.9	1	2	0	0.00	29.995 
17:35	72.3	72.3	72.3	29	38.3	1	2	315	0.00	29.995 
17:40	72.7	72.7	72.7	28	37.7	0	1	292	0.00	29.995 
17:45	72.8	72.8	72.8	31	40.4	0	2	292	0.00	29.985 
17:50	72.3	72.3	72.3	28	37.4	0	1	292	0.00	29.985 
17:55	72.5	72.5	72.5	30	39.3	0	1	292	0.00	29.985 
18:00	72.3	72.3	72.3	28	37.4	0	1	292	0.00	29.985 
18:05	72.1	72.1	72.1	31	39.8	1	2	68	0.00	29.985 
18:10	72.0	72.0	72.0	29	38.0	0	1	68	0.00	29.985 
18:15	71.6	71.6	71.6	27	35.8	0	2	338	0.00	29.984 
18:20	71.3	71.3	71.3	28	36.5	1	3	0	0.00	29.984 
18:25	71.1	71.1	71.1	28	36.3	0	1	0	0.00	29.984 
18:30	70.9	70.9	70.9	28	36.2	0	1	0	0.00	29.986 
18:35	71.1	71.1	71.1	27	35.4	0	1	0	0.00	29.986 
18:40	71.1	71.1	71.1	30	38.1	0	1	0	0.00	29.986 
18:45	71.1	71.1	71.1	28	36.3	0	1	0	0.00	29.984 
18:50	71.1	71.1	71.1	27	35.4	0	1	0	0.00	29.984 
18:55	70.9	70.9	70.9	28	36.2	0	3	0	0.00	29.984 
19:00	70.8	70.8	70.8	31	38.7	0	2	22	0.00	29.974 
19:05	70.6	70.6	70.6	28	35.9	0	2	22	0.00	29.974 
19:10	70.4	70.4	70.4	30	37.5	0	0	---	0.00	29.974 
19:15	70.4	70.4	70.4	31	38.3	0	1	22	0.00	29.974 
19:20	70.3	70.3	70.3	29	36.5	0	1	22	0.00	29.974 
19:25	70.1	70.1	70.1	29	36.4	0	1	22	0.00	29.974 
19:30	70.1	70.1	70.1	32	38.9	0	1	22	0.00	29.972 
19:35	69.9	69.9	69.9	29	36.2	1	3	22	0.00	29.972 
19:40	69.8	69.8	69.8	28	35.2	0	1	22	0.00	29.972 
19:45	69.8	69.8	69.8	31	37.8	0	1	22	0.00	29.972 
19:50	69.8	69.8	69.8	32	38.6	0	2	22	0.00	29.972 
19:55	69.4	69.4	69.4	33	39.0	0	1	22	0.00	29.972 
20:00	69.3	69.3	69.3	32	38.2	0	2	22	0.00	29.973 
20:05	69.1	69.1	69.1	34	39.5	0	2	22	0.00	29.973 
20:10	68.9	68.9	68.9	34	39.4	0	0	---	0.00	29.973 
20:15	68.8	68.8	68.8	35	40.0	0	1	22	0.00	29.969 
20:20	68.6	68.6	68.6	35	39.8	1	3	22	0.00	29.969 
20:25	68.4	68.4	68.4	36	40.4	0	1	22	0.00	29.969 
20:30	68.1	68.1	68.1	37	40.8	0	1	22	0.00	29.968 
20:35	67.9	67.9	67.9	37	40.7	0	0	---	0.00	29.968 
20:40	67.6	67.6	67.6	39	41.8	0	0	---	0.00	29.968 
20:45	67.1	67.1	67.1	40	42.0	0	0	---	0.00	29.966 
20:50	66.8	66.8	66.8	43	43.6	0	0	---	0.00	29.966 
20:55	66.3	66.3	66.3	43	43.1	0	0	---	0.00	29.966 
21:00	65.8	65.8	65.8	43	42.7	0	0	---	0.00	29.958 
21:05	65.2	65.2	65.2	43	42.1	0	0	---	0.00	29.958 
21:10	64.7	64.7	64.7	43	41.7	0	0	---	0.00	29.958 
21:15	64.2	64.2	64.2	45	42.4	0	0	---	0.00	29.958 
21:20	63.7	63.7	63.7	47	43.1	0	0	---	0.00	29.958 
21:25	63.1	63.1	63.1	50	44.2	0	1	22	0.00	29.958 
21:30	62.6	62.6	62.6	50	43.7	0	0	---	0.00	29.947 
21:35	62.3	62.3	62.3	51	43.9	0	0	---	0.00	29.947 
21:40	61.8	61.8	61.8	49	42.4	0	0	---	0.00	29.947 
21:45	61.5	61.5	61.5	50	42.7	0	0	---	0.00	29.951 
21:50	61.0	61.0	61.0	52	43.2	0	1	22	0.00	29.951 
21:55	60.7	60.7	60.7	54	44.0	0	0	---	0.00	29.951 
22:00	60.5	60.5	60.5	53	43.3	0	0	---	0.00	29.947 
22:05	60.4	60.4	60.4	53	43.2	0	0	---	0.00	29.947 
22:10	60.2	60.2	60.2	53	43.0	0	0	---	0.00	29.947 
22:15	60.1	60.1	60.1	53	42.9	0	0	---	0.00	29.955 
22:20	59.9	59.9	59.9	55	43.7	0	0	---	0.00	29.955 
22:25	59.6	59.6	59.6	57	44.3	0	0	---	0.00	29.955 
22:30	59.3	59.3	59.3	57	44.1	0	0	---	0.00	29.956 
22:35	59.0	59.0	59.0	57	43.8	0	0	---	0.00	29.956 
22:40	58.7	58.7	58.7	58	44.0	0	0	---	0.00	29.956 
22:45	58.4	58.4	58.4	59	44.1	0	0	---	0.00	29.958 
22:50	58.1	58.1	58.1	59	43.8	0	0	---	0.00	29.958 
22:55	57.8	57.8	57.8	61	44.4	0	0	---	0.00	29.958 
23:00	57.5	57.5	57.5	61	44.2	0	0	---	0.00	29.960 
23:05	57.0	57.0	57.0	62	44.1	0	0	---	0.00	29.960 
23:10	56.9	56.9	56.9	63	44.4	0	0	---	0.00	29.960 
23:15	56.6	56.6	56.6	63	44.2	0	0	---	0.00	29.960 
23:20	56.3	56.3	56.3	64	44.3	0	0	---	0.00	29.960 
23:25	56.0	56.0	56.0	66	44.8	0	0	---	0.00	29.960 
23:30	55.7	55.7	55.7	66	44.5	0	0	---	0.00	29.963 
23:35	55.6	55.6	55.6	66	44.4	0	0	---	0.00	29.963 
23:40	55.3	55.3	55.3	66	44.1	0	0	---	0.00	29.963 
23:45	55.1	55.1	55.1	65	43.5	0	0	---	0.00	29.972 
23:50	55.0	55.0	55.0	65	43.5	0	0	---	0.00	29.972 
23:55	54.8	54.8	54.8	66	43.7	0	0	---	0.00	29.972 

CoCoRaHS
IN-AL-39
A2 Web Hosting
Creative Commons License
GoDaddy
search engine by freefind advanced

loaded 2018-11-15 05:12:32 • last modified 2010-11-18 10:43:29
Privacy PolicyDisclaimer
• wx.awcolley.com is powered by PmWiki v.2002016 •
• all content (unless otherwise noted) © 2018 A W Colley